MMZO/ZLO METAR and TAF weather

Enter ICAO airport designator
Station Type Date Time Source
MMZO METAR 2019/08/22 02:03 UTC NOAA

MMZO 220203Z 12020KT 5SM +RA OVC020 26/26 A2980 RMK 8/7// RAB 55


Station Type Date Time Source
MMZO Decoded METAR 2019/08/22 02:03 UTC NOAA

Station name not available
Aug 21, 2019 - 10:03 PM EDT / 2019.08.22 0203 UTC
Wind: from the ESE (120 degrees) at 23 MPH (20 KT):0
Visibility: 5 mile(s):0
Sky conditions: overcast
Weather: heavy rain
Temperature: 78 F (26 C)
Dew Point: 78 F (26 C)
Relative Humidity: 100%
Pressure (altimeter): 29.8 in. Hg (1009 hPa)
ob: MMZO 220203Z 12020KT 5SM +RA OVC020 26/26 A2980 RMK 8/7// RAB 55
cycle: 2

Station Type Date Time Source
MMZO TAF 2019/08/22 06:45 UTC NOAA

TAF MMZO 220442Z 2206/2306 12010KT P6SM P6SM OVC020
TEMPO 2206/2210 4SM TSRA OVC015CB
FM221000 00000KT 6SM HZ BKN020 OVC070
TEMPO 2210/2214 5SM -RA BKN020CB
FM221800 20018KT P6SM BKN020CB OVC080
TEMPO 2218/2222 14020KT 4SM TSRA OVC020CB
FM230100 18005KT P6SM BKN020 OVC080

Example: see airport list